createdAt,value
2023-04-14T00:01:48.813Z,100.00
2023-04-14T00:04:16.602Z,100.00
2023-04-14T00:06:43.693Z,100.00
2023-04-14T00:09:10.855Z,100.00
2023-04-14T00:11:37.698Z,100.00
2023-04-14T00:14:04.744Z,100.00
2023-04-14T00:16:32.838Z,100.00
2023-04-14T00:18:59.970Z,100.00
2023-04-14T00:21:27.378Z,100.00
2023-04-14T00:23:54.381Z,100.00
2023-04-14T00:26:21.453Z,100.00
2023-04-14T00:28:48.189Z,100.00
2023-04-14T00:31:15.298Z,100.00
2023-04-14T00:33:42.098Z,100.00
2023-04-14T00:36:08.986Z,100.00
2023-04-14T00:38:38.520Z,100.00
2023-04-14T00:41:05.409Z,100.00
2023-04-14T00:43:32.148Z,100.00
2023-04-14T00:45:59.052Z,100.00
2023-04-14T00:48:26.139Z,100.00
2023-04-14T00:50:52.907Z,100.00
2023-04-14T00:53:20.329Z,100.00
2023-04-14T00:55:47.441Z,100.00
2023-04-14T00:58:16.045Z,100.00
2023-04-14T01:00:43.240Z,100.00
2023-04-14T01:03:10.224Z,100.00
2023-04-14T01:05:37.054Z,100.00
2023-04-14T01:08:04.478Z,100.00
2023-04-14T01:10:39.235Z,100.00
2023-04-14T01:13:21.455Z,100.00
2023-04-14T01:15:57.760Z,100.00
2023-04-14T01:18:40.934Z,100.00
2023-04-14T01:21:14.395Z,100.00
2023-04-14T01:24:02.858Z,100.00
2023-04-14T01:26:31.598Z,100.00
2023-04-14T01:29:19.883Z,100.00
2023-04-14T01:31:54.107Z,100.00
2023-04-14T01:34:33.950Z,100.00
2023-04-14T01:37:15.238Z,100.00
2023-04-14T01:39:47.014Z,100.00
2023-04-14T01:42:18.181Z,100.00
2023-04-14T01:44:46.800Z,100.00
2023-04-14T01:47:17.653Z,100.00
2023-04-14T01:49:45.890Z,100.00
2023-04-14T01:52:15.345Z,100.00
2023-04-14T01:54:43.679Z,100.00
2023-04-14T01:57:13.047Z,100.00
2023-04-14T01:59:42.078Z,100.00
2023-04-14T02:02:13.120Z,100.00
2023-04-14T02:04:41.757Z,100.00
2023-04-14T02:07:11.818Z,100.00
2023-04-14T02:09:41.535Z,100.00
2023-04-14T02:12:11.142Z,100.00
2023-04-14T02:14:41.036Z,100.00
2023-04-14T02:17:11.243Z,100.00
2023-04-14T02:19:39.146Z,100.00
2023-04-14T02:22:06.247Z,100.00
2023-04-14T02:24:33.122Z,100.00
2023-04-14T02:27:07.391Z,100.00
2023-04-14T02:29:36.640Z,100.00
2023-04-14T02:32:05.890Z,100.00
2023-04-14T02:34:38.966Z,100.00
2023-04-14T02:37:15.666Z,100.00
2023-04-14T02:39:45.837Z,100.00
2023-04-14T02:42:16.562Z,100.00
2023-04-14T02:44:50.242Z,100.00
2023-04-14T02:47:26.018Z,100.00
2023-04-14T02:49:56.654Z,100.00
2023-04-14T02:52:25.009Z,100.00
2023-04-14T02:54:53.197Z,100.00
2023-04-14T02:57:20.907Z,100.00
2023-04-14T02:59:48.332Z,100.00
2023-04-14T03:02:17.261Z,100.00
2023-04-14T03:04:45.027Z,100.00
2023-04-14T03:07:13.962Z,100.00
2023-04-14T03:09:42.544Z,100.00
2023-04-14T03:12:13.072Z,100.00
2023-04-14T03:14:41.329Z,100.00
2023-04-14T03:17:09.204Z,100.00
2023-04-14T03:19:38.229Z,100.00
2023-04-14T03:22:05.825Z,100.00
2023-04-14T03:24:35.029Z,100.00
2023-04-14T03:27:07.381Z,100.00
2023-04-14T03:29:43.828Z,100.00
2023-04-14T03:32:12.203Z,100.00
2023-04-14T03:34:42.218Z,100.00
2023-04-14T03:37:10.302Z,100.00
2023-04-14T03:39:39.877Z,100.00
2023-04-14T03:42:13.828Z,100.00
2023-04-14T03:44:46.405Z,100.00
2023-04-14T03:47:14.868Z,100.00
2023-04-14T03:49:46.507Z,100.00
2023-04-14T03:52:15.891Z,100.00
2023-04-14T03:54:45.503Z,100.00
2023-04-14T03:57:17.819Z,100.00
2023-04-14T03:59:47.434Z,100.00
2023-04-14T04:02:15.408Z,100.00
2023-04-14T04:04:43.609Z,100.00
2023-04-14T04:07:13.808Z,100.00
2023-04-14T04:09:43.062Z,100.00
2023-04-14T04:12:11.865Z,100.00
2023-04-14T04:14:42.548Z,100.00
2023-04-14T04:17:09.821Z,100.00
2023-04-14T04:19:39.066Z,100.00
2023-04-14T04:22:07.968Z,100.00
2023-04-14T04:24:40.572Z,100.00
2023-04-14T04:27:17.108Z,100.00
2023-04-14T04:29:51.777Z,100.00
2023-04-14T04:32:18.870Z,100.00
2023-04-14T04:34:47.423Z,100.00
2023-04-14T04:37:14.488Z,100.00
2023-04-14T04:39:41.351Z,100.00
2023-04-14T04:42:08.580Z,100.00
2023-04-14T04:44:38.623Z,100.00
2023-04-14T04:47:06.028Z,100.00
2023-04-14T04:49:32.848Z,100.00
2023-04-14T04:52:00.088Z,100.00
2023-04-14T04:54:27.422Z,100.00
2023-04-14T04:56:54.373Z,100.00
2023-04-14T04:59:21.140Z,100.00
2023-04-14T05:01:48.274Z,100.00
2023-04-14T05:04:15.828Z,100.00
2023-04-14T05:06:42.605Z,100.00
2023-04-14T05:09:09.724Z,100.00
2023-04-14T05:11:36.719Z,100.00
2023-04-14T05:14:03.641Z,100.00
2023-04-14T05:16:30.871Z,100.00
2023-04-14T05:18:57.785Z,100.00
2023-04-14T05:21:24.954Z,100.00
2023-04-14T05:23:51.853Z,100.00
2023-04-14T05:28:48.410Z,100.00
2023-04-14T05:31:15.218Z,100.00
2023-04-14T05:33:42.049Z,100.00
2023-04-14T05:36:08.932Z,100.00
2023-04-14T05:38:41.965Z,100.00
2023-04-14T05:41:09.232Z,100.00
2023-04-14T05:43:36.141Z,100.00
2023-04-14T05:46:03.078Z,100.00
2023-04-14T05:48:31.122Z,100.00
2023-04-14T05:50:58.309Z,100.00
2023-04-14T05:53:25.300Z,100.00
2023-04-14T05:55:53.098Z,100.00
2023-04-14T05:58:20.321Z,100.00
2023-04-14T06:00:47.213Z,100.00
2023-04-14T06:03:15.535Z,100.00
2023-04-14T06:05:42.477Z,100.00
2023-04-14T06:08:09.245Z,100.00
2023-04-14T06:10:36.090Z,100.00
2023-04-14T06:13:02.924Z,100.00
2023-04-14T06:15:29.983Z,100.00
2023-04-14T06:17:56.940Z,100.00
2023-04-14T06:20:23.854Z,100.00
2023-04-14T06:22:50.739Z,100.00
2023-04-14T06:25:17.593Z,100.00
2023-04-14T06:27:44.513Z,100.00
2023-04-14T06:30:12.025Z,100.00
2023-04-14T06:32:38.810Z,100.00
2023-04-14T06:35:05.962Z,100.00
2023-04-14T06:37:32.765Z,100.00
2023-04-14T06:39:59.565Z,100.00
2023-04-14T06:42:26.500Z,100.00
2023-04-14T06:44:53.217Z,100.00
2023-04-14T06:47:21.925Z,100.00
2023-04-14T06:49:48.840Z,100.00
2023-04-14T06:52:15.679Z,100.00
2023-04-14T06:54:42.605Z,100.00
2023-04-14T06:57:09.598Z,100.00
2023-04-14T06:59:37.685Z,100.00
2023-04-14T07:02:04.764Z,100.00
2023-04-14T07:04:31.832Z,100.00
2023-04-14T07:07:01.919Z,100.00
2023-04-14T07:09:31.582Z,100.00
2023-04-14T07:11:58.427Z,100.00
2023-04-14T07:14:25.171Z,99.91
2023-04-14T07:16:53.137Z,99.06
2023-04-14T07:19:20.831Z,97.66
2023-04-14T07:21:48.213Z,99.09
2023-04-14T07:24:15.652Z,96.85
2023-04-14T07:26:44.559Z,96.67
2023-04-14T07:29:14.280Z,94.63
2023-04-14T07:31:41.264Z,96.70
2023-04-14T07:34:08.168Z,94.71
2023-04-14T07:36:35.072Z,93.02
2023-04-14T07:39:01.928Z,91.31
2023-04-14T07:41:28.742Z,90.77
2023-04-14T07:43:59.677Z,91.59
2023-04-14T07:46:26.707Z,90.79
2023-04-14T07:48:53.732Z,88.84
2023-04-14T07:51:21.115Z,89.77
2023-04-14T07:53:47.976Z,89.24
2023-04-14T07:56:15.776Z,88.07
2023-04-14T07:58:42.545Z,86.52
2023-04-14T08:01:09.347Z,85.88
2023-04-14T08:03:39.320Z,84.92
2023-04-14T08:06:08.197Z,85.56
2023-04-14T08:08:35.986Z,83.59
2023-04-14T08:11:02.766Z,82.43
2023-04-14T08:13:29.746Z,81.20
2023-04-14T08:15:56.614Z,78.73
2023-04-14T08:18:23.474Z,81.25
2023-04-14T08:20:52.227Z,76.42
2023-04-14T08:23:22.794Z,72.75
2023-04-14T08:25:49.552Z,70.71
2023-04-14T08:28:16.326Z,71.52
2023-04-14T08:30:43.121Z,70.12
2023-04-14T08:33:09.944Z,66.49
2023-04-14T08:35:41.992Z,64.91
2023-04-14T08:38:10.135Z,64.85
2023-04-14T08:40:41.790Z,62.43
2023-04-14T08:43:10.216Z,63.36
2023-04-14T08:45:38.090Z,62.99
2023-04-14T08:48:06.137Z,61.66
2023-04-14T08:50:37.668Z,64.11
2023-04-14T08:53:08.888Z,61.39
2023-04-14T08:55:39.405Z,62.88
2023-04-14T08:58:09.814Z,58.20
2023-04-14T09:00:36.731Z,58.58
2023-04-14T09:03:04.837Z,55.99
2023-04-14T09:05:32.565Z,56.59
2023-04-14T09:07:59.598Z,56.56
2023-04-14T09:10:27.564Z,56.50
2023-04-14T09:12:54.738Z,56.18
2023-04-14T09:15:21.940Z,58.15
2023-04-14T09:17:48.821Z,57.83
2023-04-14T09:20:37.874Z,56.46
2023-04-14T09:23:04.594Z,58.91
2023-04-14T09:25:32.172Z,58.16
2023-04-14T09:27:58.928Z,56.26
2023-04-14T09:30:25.988Z,58.06
2023-04-14T09:32:56.829Z,56.79
2023-04-14T09:35:42.450Z,55.72
2023-04-14T09:38:09.210Z,54.98
2023-04-14T09:40:35.992Z,55.62
2023-04-14T09:43:02.762Z,55.14
2023-04-14T09:45:45.296Z,55.28
2023-04-14T09:48:15.749Z,53.98
2023-04-14T09:51:10.121Z,53.21
2023-04-14T09:53:39.389Z,50.67
2023-04-14T09:56:08.164Z,50.26
2023-04-14T09:58:38.747Z,50.89
2023-04-14T10:01:11.378Z,49.05
2023-04-14T10:03:41.019Z,49.12
2023-04-14T10:06:10.948Z,46.90
2023-04-14T10:08:39.482Z,48.73
2023-04-14T10:11:26.110Z,51.81
2023-04-14T10:13:58.083Z,52.24
2023-04-14T10:16:25.201Z,49.00
2023-04-14T10:18:53.754Z,47.38
2023-04-14T10:21:24.716Z,45.88
2023-04-14T10:23:52.540Z,45.65
2023-04-14T10:26:19.770Z,48.34
2023-04-14T10:28:49.450Z,49.70
2023-04-14T10:31:33.571Z,50.06
2023-04-14T10:34:11.355Z,49.92
2023-04-14T10:36:39.053Z,48.65
2023-04-14T10:39:07.287Z,45.63
2023-04-14T10:41:43.092Z,47.26
2023-04-14T10:44:32.810Z,46.87
2023-04-14T10:47:05.327Z,48.98
2023-04-14T10:49:37.504Z,49.26
2023-04-14T10:52:04.280Z,56.68
2023-04-14T10:55:03.745Z,66.36
2023-04-14T10:57:30.584Z,68.75
2023-04-14T10:59:59.369Z,66.02
2023-04-14T11:02:34.008Z,68.13
2023-04-14T11:05:10.523Z,67.91
2023-04-14T11:07:44.786Z,67.20
2023-04-14T11:10:17.614Z,65.23
2023-04-14T11:12:46.171Z,62.59
2023-04-14T11:15:13.634Z,58.69
2023-04-14T11:17:41.839Z,60.06
2023-04-14T11:20:22.248Z,59.44
2023-04-14T11:22:51.044Z,57.42
2023-04-14T11:25:22.313Z,57.10
2023-04-14T11:27:52.104Z,53.99
2023-04-14T11:30:20.577Z,53.38
2023-04-14T11:32:51.874Z,52.00
2023-04-14T11:35:20.064Z,52.39
2023-04-14T11:37:47.134Z,51.08
2023-04-14T11:40:15.144Z,48.68
2023-04-14T11:42:46.888Z,47.92
2023-04-14T11:45:15.859Z,48.13
2023-04-14T11:48:06.392Z,48.46
2023-04-14T11:50:39.158Z,48.72
2023-04-14T11:53:10.060Z,46.97
2023-04-14T11:55:37.278Z,46.09
2023-04-14T11:58:05.074Z,43.97
2023-04-14T12:00:31.884Z,41.59
2023-04-14T12:03:03.713Z,42.25
2023-04-14T12:05:33.941Z,42.39
2023-04-14T12:08:03.376Z,42.08
2023-04-14T12:10:31.783Z,41.46
2023-04-14T12:13:06.233Z,40.42
2023-04-14T12:15:37.045Z,39.09
2023-04-14T12:18:14.051Z,40.20
2023-04-14T12:20:48.004Z,36.37
2023-04-14T12:23:16.449Z,34.95
2023-04-14T12:25:43.590Z,33.71
2023-04-14T12:28:10.410Z,36.10
2023-04-14T12:30:37.844Z,34.72
2023-04-14T12:33:14.276Z,36.04
2023-04-14T12:35:41.068Z,35.27
2023-04-14T12:38:17.697Z,36.43
2023-04-14T12:40:48.749Z,37.72
2023-04-14T12:43:16.945Z,37.31
2023-04-14T12:45:49.141Z,37.82
2023-04-14T12:48:18.000Z,37.70
2023-04-14T12:50:45.321Z,38.01
2023-04-14T12:53:25.399Z,39.15
2023-04-14T12:56:16.812Z,37.99
2023-04-14T12:58:47.199Z,37.45
2023-04-14T13:01:16.744Z,35.96
2023-04-14T13:03:48.265Z,35.88
2023-04-14T13:06:18.940Z,35.72
2023-04-14T13:08:47.684Z,35.98
2023-04-14T13:11:15.396Z,34.28
2023-04-14T13:13:42.503Z,35.41
2023-04-14T13:16:13.519Z,35.02
2023-04-14T13:18:47.531Z,31.94
2023-04-14T13:21:14.542Z,32.61
2023-04-14T13:23:41.741Z,36.07
2023-04-14T13:26:08.805Z,37.98
2023-04-14T13:28:36.758Z,42.23
2023-04-14T13:31:03.629Z,44.88
2023-04-14T13:33:30.427Z,45.38
2023-04-14T13:35:59.977Z,46.50
2023-04-14T13:38:27.432Z,47.43
2023-04-14T13:40:54.247Z,47.27
2023-04-14T13:43:21.777Z,48.55
2023-04-14T13:45:48.579Z,49.01
2023-04-14T13:48:15.804Z,48.52
2023-04-14T13:50:42.617Z,48.48
2023-04-14T13:53:09.401Z,49.08
2023-04-14T13:55:36.536Z,50.58
2023-04-14T13:58:03.614Z,49.27
2023-04-14T14:00:30.586Z,50.52
2023-04-14T14:02:57.554Z,44.31
2023-04-14T14:05:24.713Z,42.85
2023-04-14T14:07:51.795Z,43.17
2023-04-14T14:10:18.991Z,41.34
2023-04-14T14:12:45.861Z,39.67
2023-04-14T14:15:12.682Z,39.08
2023-04-14T14:17:39.569Z,37.06
2023-04-14T14:20:08.418Z,37.66
2023-04-14T14:22:37.856Z,40.10
2023-04-14T14:25:18.384Z,37.86
2023-04-14T14:27:45.920Z,37.58
2023-04-14T14:30:13.310Z,34.14
2023-04-14T14:32:40.073Z,35.66
2023-04-14T14:35:07.367Z,37.64
2023-04-14T14:37:34.555Z,37.63
2023-04-14T14:40:01.329Z,37.15
2023-04-14T14:42:28.508Z,38.61
2023-04-14T14:44:55.446Z,36.13
2023-04-14T14:47:22.858Z,38.63
2023-04-14T14:49:59.427Z,38.61
2023-04-14T14:52:32.452Z,35.38
2023-04-14T14:54:59.676Z,37.93
2023-04-14T14:57:27.223Z,39.76
2023-04-14T14:59:54.181Z,36.44
2023-04-14T15:02:21.932Z,36.23
2023-04-14T15:04:49.169Z,35.31
2023-04-14T15:07:16.078Z,36.83
2023-04-14T15:09:43.120Z,39.05
2023-04-14T15:12:09.986Z,40.61
2023-04-14T15:14:36.988Z,40.65
2023-04-14T15:17:03.866Z,41.47
2023-04-14T15:19:30.759Z,39.88
2023-04-14T15:21:57.555Z,38.44
2023-04-14T15:24:24.319Z,35.33
2023-04-14T15:26:51.189Z,37.85
2023-04-14T15:29:19.612Z,40.33
2023-04-14T15:31:46.521Z,40.35
2023-04-14T15:34:13.425Z,38.75
2023-04-14T15:36:40.181Z,36.94
2023-04-14T15:39:07.312Z,38.22
2023-04-14T15:41:36.152Z,39.13
2023-04-14T15:44:03.131Z,39.26
2023-04-14T15:46:30.221Z,38.21
2023-04-14T15:48:57.218Z,39.79
2023-04-14T15:51:23.961Z,40.37
2023-04-14T15:53:52.087Z,41.30
2023-04-14T15:56:23.741Z,40.83
2023-04-14T15:58:50.705Z,41.42
2023-04-14T16:01:17.795Z,41.00
2023-04-14T16:03:45.688Z,42.18
2023-04-14T16:06:12.551Z,41.55
2023-04-14T16:08:39.435Z,39.51
2023-04-14T16:11:06.254Z,38.89
2023-04-14T16:13:33.049Z,41.34
2023-04-14T16:15:59.834Z,42.06
2023-04-14T16:18:27.052Z,42.08
2023-04-14T16:20:53.833Z,41.60
2023-04-14T16:23:20.870Z,43.17
2023-04-14T16:25:49.727Z,43.17
2023-04-14T16:28:16.929Z,43.28
2023-04-14T16:30:43.938Z,44.44
2023-04-14T16:33:11.004Z,44.42
2023-04-14T16:35:37.878Z,45.17
2023-04-14T16:38:08.767Z,44.73
2023-04-14T16:40:36.768Z,45.92
2023-04-14T16:43:04.087Z,46.66
2023-04-14T16:45:32.184Z,46.54
2023-04-14T16:47:59.279Z,47.39
2023-04-14T16:50:26.692Z,46.92
2023-04-14T16:52:54.472Z,46.52
2023-04-14T16:55:21.797Z,47.12
2023-04-14T16:57:48.616Z,48.22
2023-04-14T17:00:16.812Z,47.47
2023-04-14T17:02:43.987Z,47.39
2023-04-14T17:05:11.411Z,48.32
2023-04-14T17:07:38.271Z,48.02
2023-04-14T17:10:05.343Z,48.03
2023-04-14T17:12:32.117Z,49.05
2023-04-14T17:15:00.549Z,48.70
2023-04-14T17:17:28.699Z,49.21
2023-04-14T17:19:56.810Z,50.01
2023-04-14T17:22:24.105Z,49.99
2023-04-14T17:24:51.740Z,50.40
2023-04-14T17:27:18.521Z,50.37
2023-04-14T17:29:46.635Z,51.51
2023-04-14T17:32:13.727Z,51.85
2023-04-14T17:34:40.686Z,52.01
2023-04-14T17:37:07.555Z,52.44
2023-04-14T17:39:34.696Z,52.84
2023-04-14T17:42:01.731Z,52.80
2023-04-14T17:44:33.456Z,53.22
2023-04-14T17:47:13.033Z,53.13
2023-04-14T17:49:39.936Z,54.02
2023-04-14T17:52:08.009Z,54.12
2023-04-14T17:54:35.243Z,54.73
2023-04-14T17:57:02.291Z,55.74
2023-04-14T17:59:29.297Z,56.24
2023-04-14T18:01:56.432Z,56.65
2023-04-14T18:04:23.345Z,56.46
2023-04-14T18:06:51.231Z,56.54
2023-04-14T18:09:18.120Z,57.16
2023-04-14T18:11:44.911Z,57.63
2023-04-14T18:14:11.629Z,57.76
2023-04-14T18:16:39.193Z,58.20
2023-04-14T18:19:06.238Z,58.89
2023-04-14T18:21:33.107Z,59.60
2023-04-14T18:26:30.416Z,60.29
2023-04-14T18:28:57.524Z,61.96
2023-04-14T18:31:24.442Z,64.55
2023-04-14T18:33:51.683Z,63.88
2023-04-14T18:36:18.482Z,63.98
2023-04-14T18:38:45.317Z,63.99
2023-04-14T18:41:12.071Z,65.39
2023-04-14T18:43:38.904Z,65.90
2023-04-14T18:46:05.738Z,66.41
2023-04-14T18:48:33.022Z,66.35
2023-04-14T18:51:02.670Z,66.33
2023-04-14T18:53:29.535Z,66.34
2023-04-14T18:55:56.313Z,66.58
2023-04-14T18:58:23.350Z,67.24
2023-04-14T19:00:50.124Z,67.72
2023-04-14T19:03:17.263Z,68.36
2023-04-14T19:05:45.078Z,68.72
2023-04-14T19:08:12.019Z,68.84
2023-04-14T19:10:39.998Z,69.01
2023-04-14T19:13:06.847Z,69.95
2023-04-14T19:15:33.657Z,70.55
2023-04-14T19:18:01.831Z,70.86
2023-04-14T19:20:28.623Z,71.66
2023-04-14T19:22:55.525Z,71.87
2023-04-14T19:25:22.635Z,72.29
2023-04-14T19:27:49.673Z,72.69
2023-04-14T19:30:16.563Z,73.17
2023-04-14T19:32:43.426Z,73.80
2023-04-14T19:35:10.715Z,74.06
2023-04-14T19:37:38.536Z,74.41
2023-04-14T19:40:06.838Z,74.42
2023-04-14T19:42:33.804Z,75.09
2023-04-14T19:45:01.399Z,75.37
2023-04-14T19:47:28.600Z,76.09
2023-04-14T19:49:55.474Z,75.92
2023-04-14T19:52:22.623Z,75.25
2023-04-14T19:54:50.017Z,75.68
2023-04-14T19:57:17.130Z,77.18
2023-04-14T19:59:44.485Z,77.44
2023-04-14T20:02:13.508Z,77.42
2023-04-14T20:04:40.732Z,77.40
2023-04-14T20:07:07.825Z,77.51
2023-04-14T20:09:35.942Z,79.56
2023-04-14T20:12:03.411Z,79.85
2023-04-14T20:14:30.522Z,80.71
2023-04-14T20:16:57.326Z,80.80
2023-04-14T20:19:24.713Z,81.14
2023-04-14T20:21:51.523Z,81.44
2023-04-14T20:24:18.858Z,80.77
2023-04-14T20:26:45.906Z,81.54
2023-04-14T20:29:13.248Z,81.75
2023-04-14T20:31:41.806Z,82.57
2023-04-14T20:34:09.268Z,82.78
2023-04-14T20:36:37.765Z,81.97
2023-04-14T20:39:06.116Z,82.22
2023-04-14T20:41:34.109Z,83.26
2023-04-14T20:44:01.554Z,83.92
2023-04-14T20:46:29.026Z,84.39
2023-04-14T20:48:56.890Z,83.72
2023-04-14T20:51:23.897Z,83.90
2023-04-14T20:53:51.140Z,83.71
2023-04-14T20:56:18.189Z,84.07
2023-04-14T20:58:45.782Z,84.28
2023-04-14T21:01:13.092Z,84.66
2023-04-14T21:03:40.486Z,85.42
2023-04-14T21:06:07.507Z,85.15
2023-04-14T21:08:34.257Z,85.59
2023-04-14T21:11:15.241Z,86.47
2023-04-14T21:15:31.396Z,86.73
2023-04-14T21:16:31.381Z,87.00
2023-04-14T21:18:58.290Z,88.06
2023-04-14T21:21:25.065Z,86.85
2023-04-14T21:23:52.471Z,88.11
2023-04-14T21:26:19.460Z,86.50
2023-04-14T21:28:46.387Z,87.85
2023-04-14T21:31:13.255Z,88.26
2023-04-14T21:33:41.980Z,87.89
2023-04-14T21:36:12.185Z,89.70
2023-04-14T21:38:39.474Z,90.63
2023-04-14T21:41:08.210Z,91.72
2023-04-14T21:43:35.347Z,92.19
2023-04-14T21:46:02.366Z,92.47
2023-04-14T21:48:29.610Z,92.07
2023-04-14T21:50:57.409Z,91.14
2023-04-14T21:53:24.426Z,91.22
2023-04-14T21:56:09.080Z,92.34
2023-04-14T21:58:37.506Z,95.11
2023-04-14T22:01:04.754Z,94.24
2023-04-14T22:03:32.845Z,93.87
2023-04-14T22:06:00.279Z,92.81
2023-04-14T22:08:27.123Z,92.23
2023-04-14T22:10:55.112Z,92.84
2023-04-14T22:13:22.024Z,92.72
2023-04-14T22:15:50.191Z,93.97
2023-04-14T22:18:17.384Z,94.88
2023-04-14T22:20:45.288Z,94.85
2023-04-14T22:23:12.651Z,95.08
2023-04-14T22:25:39.508Z,96.15
2023-04-14T22:28:06.540Z,96.07
2023-04-14T22:30:33.377Z,95.72
2023-04-14T22:33:00.204Z,95.01
2023-04-14T22:35:26.960Z,95.65
2023-04-14T22:37:53.774Z,95.67
2023-04-14T22:40:20.677Z,96.19
2023-04-14T22:42:47.476Z,96.34
2023-04-14T22:45:14.866Z,96.19
2023-04-14T22:47:42.023Z,96.39
2023-04-14T22:50:09.408Z,96.45
2023-04-14T22:52:36.641Z,96.46
2023-04-14T22:55:03.685Z,96.33
2023-04-14T22:57:30.536Z,96.85
2023-04-14T22:59:57.675Z,96.92
2023-04-14T23:02:24.774Z,97.58
2023-04-14T23:04:52.410Z,96.93
2023-04-14T23:07:19.158Z,97.81
2023-04-14T23:09:45.898Z,96.87
2023-04-14T23:12:12.628Z,97.27
2023-04-14T23:14:39.364Z,97.58
2023-04-14T23:17:06.399Z,97.99
2023-04-14T23:19:33.975Z,98.16
2023-04-14T23:22:00.707Z,97.83
2023-04-14T23:24:27.473Z,98.89
2023-04-14T23:26:54.578Z,98.50
2023-04-14T23:29:21.682Z,98.92
2023-04-14T23:31:48.591Z,99.51
2023-04-14T23:34:15.486Z,100.00
2023-04-14T23:36:42.732Z,100.00
2023-04-14T23:39:09.508Z,100.00
2023-04-14T23:41:36.349Z,100.00
2023-04-14T23:44:03.274Z,100.00
2023-04-14T23:46:30.132Z,100.00
2023-04-14T23:48:58.954Z,100.00
2023-04-14T23:51:30.547Z,100.00
2023-04-14T23:53:59.681Z,100.00
2023-04-14T23:56:26.545Z,100.00
2023-04-14T23:58:53.437Z,100.00
